Time;durP1;ratioP1;P1;durP2;ratioP2;P2;SDS_P1;SDS_P2;PMS_P1;PMS_P2;Temp;Humidity;BMP_temperature;BMP_pressure;BME280_temperature;BME280_humidity;BME280_pressure;Samples;Min_cycle;Max_cycle;Signal;HPM_P1;HPM_P2
2021/06/26 00:00:07;;;;;;;4.93;3.70;;;25.00;49.90;;;;;;5000946;28;20092;-64
2021/06/26 00:02:32;;;;;;;5.53;4.00;;;25.00;49.90;;;;;;5007717;28;20553;-65
2021/06/26 00:04:58;;;;;;;6.75;4.00;;;25.00;50.00;;;;;;4999071;28;20014;-64
2021/06/26 00:07:23;;;;;;;4.00;3.47;;;25.00;49.90;;;;;;5001772;28;20120;-62
2021/06/26 00:09:49;;;;;;;4.70;3.75;;;25.00;50.00;;;;;;5010205;28;20022;-62
2021/06/26 00:12:15;;;;;;;5.55;3.35;;;25.00;50.10;;;;;;5009339;28;20589;-62
2021/06/26 00:14:41;;;;;;;5.50;3.90;;;25.00;50.20;;;;;;4999092;28;20032;-64
2021/06/26 00:17:06;;;;;;;6.22;3.85;;;25.00;50.20;;;;;;5010204;28;20045;-64
2021/06/26 00:19:32;;;;;;;4.07;3.45;;;25.00;50.00;;;;;;5011368;28;20030;-64
2021/06/26 00:21:58;;;;;;;9.35;4.05;;;25.00;50.10;;;;;;5010902;28;20042;-62
2021/06/26 00:24:23;;;;;;;5.15;4.00;;;25.00;50.10;;;;;;4999315;28;20503;-62
2021/06/26 00:26:50;;;;;;;4.80;3.78;;;25.00;50.10;;;;;;5010144;28;20026;-62
2021/06/26 00:29:17;;;;;;;4.78;3.97;;;25.00;50.20;;;;;;5009935;28;20033;-62
2021/06/26 00:31:42;;;;;;;5.05;4.10;;;25.00;50.20;;;;;;5010276;28;20030;-62
2021/06/26 00:34:08;;;;;;;4.40;3.90;;;25.00;50.20;;;;;;5001225;28;20447;-60
2021/06/26 00:36:33;;;;;;;7.13;4.00;;;25.00;50.20;;;;;;5012841;28;20022;-63
2021/06/26 00:38:59;;;;;;;5.20;3.95;;;25.00;50.30;;;;;;5014431;28;20379;-62
2021/06/26 00:41:25;;;;;;;3.83;3.47;;;24.90;50.20;;;;;;5014855;28;20029;-63
2021/06/26 00:43:50;;;;;;;9.02;3.95;;;24.90;50.30;;;;;;5015268;28;20034;-64
2021/06/26 00:46:16;;;;;;;4.57;3.78;;;24.90;50.30;;;;;;5014091;28;20099;-63
2021/06/26 00:48:42;;;;;;;4.72;3.78;;;25.00;50.50;;;;;;5023218;28;20110;-63
2021/06/26 00:51:08;;;;;;;6.05;4.10;;;24.90;50.50;;;;;;5033629;28;20038;-64
2021/06/26 00:53:34;;;;;;;4.15;3.75;;;24.90;50.60;;;;;;5034677;28;20054;-64
2021/06/26 00:56:01;;;;;;;7.15;4.15;;;24.90;50.50;;;;;;5032839;28;20044;-64
2021/06/26 00:58:27;;;;;;;5.57;3.72;;;24.90;50.60;;;;;;5034015;28;20124;-64
2021/06/26 01:00:53;;;;;;;4.15;3.65;;;24.90;50.60;;;;;;5034092;28;20061;-62
2021/06/26 01:03:19;;;;;;;6.93;4.18;;;24.90;50.60;;;;;;5033642;28;20056;-64
2021/06/26 01:05:47;;;;;;;7.70;4.07;;;24.80;50.80;;;;;;5033556;28;20021;-64
2021/06/26 01:08:13;;;;;;;6.60;4.85;;;24.80;50.60;;;;;;5040857;28;20022;-65
2021/06/26 01:10:38;;;;;;;7.05;3.88;;;24.90;50.60;;;;;;5013418;28;20532;-63
2021/06/26 01:13:05;;;;;;;6.75;4.15;;;24.90;50.70;;;;;;5012250;28;20112;-63
2021/06/26 01:15:31;;;;;;;4.60;4.03;;;24.90;50.70;;;;;;5011813;28;20490;-63
2021/06/26 01:17:57;;;;;;;5.28;3.97;;;24.90;50.60;;;;;;5013798;28;20022;-60
2021/06/26 01:20:24;;;;;;;6.75;4.50;;;24.90;50.70;;;;;;5013144;28;20395;-61
2021/06/26 01:22:59;;;;;;;5.30;4.10;;;24.90;50.60;;;;;;5013984;28;20038;-62
2021/06/26 01:25:27;;;;;;;5.45;4.40;;;24.80;50.70;;;;;;5011653;28;20495;-64
2021/06/26 01:27:56;;;;;;;4.95;3.90;;;24.90;50.80;;;;;;5012748;28;20375;-62
2021/06/26 01:30:30;;;;;;;4.65;4.07;;;24.90;50.80;;;;;;5012582;28;20026;-63
2021/06/26 01:32:56;;;;;;;8.45;4.40;;;24.80;50.80;;;;;;5012504;28;20037;-60
2021/06/26 01:35:22;;;;;;;7.03;3.90;;;24.90;50.90;;;;;;5001838;28;20037;-63
2021/06/26 01:37:47;;;;;;;4.75;3.80;;;24.80;50.90;;;;;;5012591;28;20456;-64
2021/06/26 01:40:19;;;;;;;5.15;4.65;;;24.80;50.80;;;;;;5011394;28;20025;-63
2021/06/26 01:42:46;;;;;;;6.15;4.47;;;24.80;50.80;;;;;;5012826;28;20434;-64
2021/06/26 01:45:13;;;;;;;6.47;4.38;;;24.80;51.00;;;;;;5013083;28;20038;-65
2021/06/26 01:47:48;;;;;;;5.97;4.38;;;24.80;51.00;;;;;;5013139;28;20030;-64
2021/06/26 01:50:15;;;;;;;6.10;4.57;;;24.80;51.10;;;;;;5013155;28;20495;-63
2021/06/26 01:52:43;;;;;;;6.28;4.32;;;24.80;51.20;;;;;;5025279;28;20053;-63
2021/06/26 01:55:09;;;;;;;5.95;4.43;;;24.80;51.30;;;;;;5025165;28;20039;-64
2021/06/26 01:57:35;;;;;;;5.28;4.55;;;24.80;51.40;;;;;;5033454;28;20040;-63
2021/06/26 02:00:00;;;;;;;5.95;4.63;;;24.80;51.50;;;;;;5032551;28;20022;-64
2021/06/26 02:02:26;;;;;;;5.18;4.40;;;24.80;51.60;;;;;;5032507;28;20042;-63
2021/06/26 02:04:52;;;;;;;5.30;4.40;;;24.80;51.60;;;;;;5031972;28;20030;-64
2021/06/26 02:07:17;;;;;;;8.05;4.93;;;24.80;51.70;;;;;;5032046;28;20051;-62
2021/06/26 02:09:43;;;;;;;5.28;4.57;;;24.80;51.60;;;;;;5013471;28;20037;-63
2021/06/26 02:12:09;;;;;;;5.05;4.55;;;24.80;51.60;;;;;;5012105;28;20030;-61
2021/06/26 02:14:35;;;;;;;7.82;4.97;;;24.80;51.70;;;;;;5022302;28;20040;-64
2021/06/26 02:17:00;;;;;;;6.40;4.40;;;24.80;51.70;;;;;;5032035;28;20464;-63
2021/06/26 02:19:26;;;;;;;8.10;5.38;;;24.80;51.70;;;;;;5033358;28;20126;-65
2021/06/26 02:21:51;;;;;;;5.78;4.97;;;24.80;51.70;;;;;;5031992;28;20459;-64
2021/06/26 02:24:17;;;;;;;6.82;5.28;;;24.80;51.70;;;;;;5031637;28;20029;-64
2021/06/26 02:26:43;;;;;;;5.45;4.90;;;24.80;51.70;;;;;;5016096;28;20053;-63
2021/06/26 02:29:08;;;;;;;7.05;5.32;;;24.80;51.70;;;;;;5013210;28;20034;-64
2021/06/26 02:31:34;;;;;;;6.22;5.63;;;24.80;51.70;;;;;;5013630;28;20041;-64
2021/06/26 02:34:00;;;;;;;6.47;5.63;;;24.80;51.70;;;;;;5010834;28;20030;-63
2021/06/26 02:36:25;;;;;;;7.30;5.15;;;24.80;51.80;;;;;;5012695;28;20030;-64
2021/06/26 02:38:51;;;;;;;8.43;5.13;;;24.80;51.70;;;;;;5013221;28;20022;-64
2021/06/26 02:41:20;;;;;;;7.15;6.05;;;24.80;51.90;;;;;;5012097;28;20583;-64
2021/06/26 02:43:46;;;;;;;7.25;5.88;;;24.80;52.10;;;;;;5012802;28;20037;-64
2021/06/26 02:46:12;;;;;;;6.32;5.13;;;24.80;52.00;;;;;;5011409;28;20037;-64
2021/06/26 02:48:38;;;;;;;7.68;5.15;;;24.70;52.10;;;;;;5012612;28;20022;-64
2021/06/26 02:51:03;;;;;;;6.80;5.55;;;24.70;52.10;;;;;;5012139;28;20463;-64
2021/06/26 02:53:29;;;;;;;6.65;5.53;;;24.70;52.20;;;;;;5012396;28;20057;-64
2021/06/26 02:55:55;;;;;;;6.53;4.63;;;24.70;52.20;;;;;;5012548;28;20483;-64
2021/06/26 02:58:22;;;;;;;8.85;6.55;;;24.70;52.30;;;;;;5011914;28;20030;-64
2021/06/26 03:00:48;;;;;;;6.60;5.53;;;24.70;52.40;;;;;;5012703;28;20018;-64
2021/06/26 03:03:13;;;;;;;9.85;6.13;;;24.70;52.50;;;;;;5011528;28;20038;-64
2021/06/26 03:05:39;;;;;;;6.15;5.55;;;24.70;52.70;;;;;;5012407;28;20474;-64
2021/06/26 03:08:06;;;;;;;7.93;6.03;;;24.70;52.80;;;;;;5011413;28;20383;-64
2021/06/26 03:10:32;;;;;;;8.63;5.43;;;24.70;52.80;;;;;;5012439;28;20026;-64
2021/06/26 03:12:57;;;;;;;7.80;6.38;;;24.70;52.80;;;;;;5011960;28;20128;-60
2021/06/26 03:15:23;;;;;;;6.18;5.57;;;24.70;52.80;;;;;;5011581;28;20026;-64
2021/06/26 03:17:49;;;;;;;7.55;6.32;;;24.70;52.80;;;;;;5012330;28;20026;-64
2021/06/26 03:20:15;;;;;;;7.60;5.85;;;24.70;53.00;;;;;;5011754;28;20030;-64
2021/06/26 03:22:40;;;;;;;6.88;6.15;;;24.70;53.10;;;;;;5011749;28;20038;-64
2021/06/26 03:25:09;;;;;;;7.95;6.57;;;24.70;53.20;;;;;;5011217;28;20084;-64
2021/06/26 03:27:35;;;;;;;10.07;5.88;;;24.70;53.40;;;;;;5012218;28;20026;-65
2021/06/26 03:30:01;;;;;;;7.82;6.20;;;24.70;53.50;;;;;;5011270;28;20456;-60
2021/06/26 03:32:27;;;;;;;7.30;5.75;;;24.70;53.60;;;;;;5011544;28;20072;-64
2021/06/26 03:34:52;;;;;;;9.00;5.72;;;24.70;53.60;;;;;;5010783;28;20026;-64
2021/06/26 03:37:18;;;;;;;6.72;5.80;;;24.70;53.60;;;;;;5011097;28;20037;-64
2021/06/26 03:39:43;;;;;;;9.18;5.72;;;24.70;53.60;;;;;;5012090;28;20026;-64
2021/06/26 03:42:09;;;;;;;7.22;4.90;;;24.60;53.70;;;;;;5011384;28;20057;-64
2021/06/26 03:44:35;;;;;;;11.30;5.45;;;24.50;53.90;;;;;;5012055;28;20030;-64
2021/06/26 03:47:01;;;;;;;7.07;6.38;;;24.40;54.20;;;;;;5011287;28;20045;-59
2021/06/26 03:49:30;;;;;;;10.07;5.43;;;24.40;54.40;;;;;;5011554;28;20033;-64
2021/06/26 03:51:55;;;;;;;8.40;6.10;;;24.40;54.50;;;;;;5011842;28;20057;-64
2021/06/26 03:54:21;;;;;;;8.68;5.72;;;24.40;54.60;;;;;;5010155;28;20180;-63
2021/06/26 03:56:46;;;;;;;7.75;5.57;;;24.40;54.70;;;;;;5001236;28;20057;-63
2021/06/26 03:59:12;;;;;;;7.40;5.55;;;24.40;54.50;;;;;;5000177;28;20487;-63
2021/06/26 04:01:38;;;;;;;8.60;5.50;;;24.50;54.50;;;;;;5010430;28;20065;-65
2021/06/26 04:04:03;;;;;;;5.80;5.20;;;24.60;54.30;;;;;;5006596;28;20037;-63
2021/06/26 04:06:29;;;;;;;6.10;5.28;;;24.60;54.30;;;;;;5010613;28;20021;-62
2021/06/26 04:08:55;;;;;;;8.70;5.32;;;24.60;54.20;;;;;;5001618;28;20427;-62
2021/06/26 04:11:20;;;;;;;7.28;5.50;;;24.60;54.20;;;;;;5000036;28;20044;-62
2021/06/26 04:13:46;;;;;;;7.60;5.53;;;24.60;54.20;;;;;;5012575;28;20034;-62
2021/06/26 04:16:12;;;;;;;6.55;5.40;;;24.60;54.30;;;;;;5013015;28;20030;-62
2021/06/26 04:18:37;;;;;;;7.63;5.10;;;24.60;54.30;;;;;;5003483;28;20033;-62
2021/06/26 04:21:03;;;;;;;8.05;5.65;;;24.60;54.30;;;;;;5004947;28;20414;-60
2021/06/26 04:23:28;;;;;;;7.97;4.90;;;24.50;54.50;;;;;;5004253;28;20057;-65
2021/06/26 04:25:54;;;;;;;6.72;5.55;;;24.50;54.70;;;;;;5014268;28;20096;-65
2021/06/26 04:28:20;;;;;;;8.23;5.53;;;24.60;54.60;;;;;;5013158;28;20249;-65
2021/06/26 04:30:45;;;;;;;6.85;5.63;;;24.60;54.60;;;;;;5014174;28;20037;-65
2021/06/26 04:33:12;;;;;;;7.00;5.05;;;24.60;54.60;;;;;;5034610;28;20038;-64
2021/06/26 04:35:37;;;;;;;8.50;5.82;;;24.60;54.60;;;;;;5005319;28;20019;-64
2021/06/26 04:38:03;;;;;;;7.32;5.18;;;24.60;54.60;;;;;;5013175;28;20064;-63
2021/06/26 04:40:29;;;;;;;7.65;5.28;;;24.60;54.60;;;;;;5002012;28;20034;-64
2021/06/26 04:42:55;;;;;;;5.93;5.10;;;24.60;54.60;;;;;;4995270;28;20360;-64
2021/06/26 04:45:21;;;;;;;7.30;5.38;;;24.60;54.60;;;;;;4994695;28;20096;-64
2021/06/26 04:47:47;;;;;;;6.15;5.30;;;24.60;54.60;;;;;;4995316;28;20096;-64
2021/06/26 04:50:13;;;;;;;6.15;5.50;;;24.60;54.60;;;;;;4994682;28;20480;-64
2021/06/26 04:52:40;;;;;;;8.00;5.07;;;24.60;54.70;;;;;;4995301;28;20046;-64
2021/06/26 04:55:07;;;;;;;7.13;5.55;;;24.60;54.70;;;;;;4994040;28;20543;-64
2021/06/26 04:57:33;;;;;;;7.55;5.45;;;24.60;54.80;;;;;;4995463;28;20027;-64
2021/06/26 04:59:58;;;;;;;9.48;5.97;;;24.60;54.80;;;;;;4995170;28;20109;-64
2021/06/26 05:02:24;;;;;;;7.45;5.93;;;24.60;54.90;;;;;;4994454;28;20042;-64
2021/06/26 05:04:49;;;;;;;7.47;5.57;;;24.60;55.00;;;;;;4995082;28;20030;-64
2021/06/26 05:07:15;;;;;;;7.82;5.88;;;24.60;55.10;;;;;;4993951;28;20096;-64
2021/06/26 05:09:41;;;;;;;7.38;5.78;;;24.60;55.20;;;;;;4994514;28;20030;-64
2021/06/26 05:12:07;;;;;;;7.03;5.55;;;24.60;55.40;;;;;;4994254;28;20537;-64
2021/06/26 05:14:33;;;;;;;12.23;6.43;;;24.60;55.50;;;;;;4994727;28;20041;-64
2021/06/26 05:16:59;;;;;;;8.82;6.28;;;24.60;55.60;;;;;;4994547;28;20038;-64
2021/06/26 05:19:25;;;;;;;8.98;6.35;;;24.60;55.70;;;;;;4993459;28;20361;-64
2021/06/26 05:21:50;;;;;;;7.35;6.28;;;24.60;55.80;;;;;;4994741;28;20053;-64
2021/06/26 05:24:16;;;;;;;9.73;6.20;;;24.60;55.90;;;;;;4992655;28;20416;-64
2021/06/26 05:26:42;;;;;;;8.73;6.50;;;24.60;55.90;;;;;;4994820;28;20487;-64
2021/06/26 05:29:08;;;;;;;9.02;6.32;;;24.60;55.90;;;;;;4993819;28;20030;-64
2021/06/26 05:31:33;;;;;;;8.13;6.55;;;24.60;55.90;;;;;;4994639;28;20423;-64
2021/06/26 05:33:59;;;;;;;7.88;6.30;;;24.50;56.10;;;;;;4994138;28;20468;-64
2021/06/26 05:36:25;;;;;;;7.60;6.70;;;24.50;56.30;;;;;;4993830;28;20487;-65
2021/06/26 05:38:51;;;;;;;8.98;6.47;;;24.50;56.30;;;;;;4994436;28;20136;-65
2021/06/26 05:41:17;;;;;;;9.27;6.65;;;24.60;56.20;;;;;;4993577;28;20053;-64
2021/06/26 05:43:43;;;;;;;6.95;6.25;;;24.60;56.20;;;;;;4994738;28;20025;-64
2021/06/26 05:46:09;;;;;;;8.82;6.53;;;24.60;56.20;;;;;;4993571;28;20031;-64
2021/06/26 05:48:34;;;;;;;10.60;6.65;;;24.60;56.20;;;;;;4994220;28;20041;-64
2021/06/26 05:51:00;;;;;;;6.97;6.20;;;24.60;56.20;;;;;;4994522;28;20034;-64
2021/06/26 05:53:26;;;;;;;9.68;6.80;;;24.60;56.10;;;;;;5008131;28;20058;-64
2021/06/26 05:55:58;;;;;;;7.53;6.68;;;24.60;56.00;;;;;;4994303;28;20034;-64
2021/06/26 05:58:36;;;;;;;9.73;7.72;;;24.60;55.90;;;;;;4993440;28;20105;-64
2021/06/26 06:01:07;;;;;;;9.38;6.90;;;24.70;56.00;;;;;;4993839;28;20062;-60
2021/06/26 06:03:33;;;;;;;9.77;6.63;;;24.70;56.00;;;;;;4993900;28;20035;-64
2021/06/26 06:05:59;;;;;;;8.55;6.57;;;24.70;55.90;;;;;;4993887;28;20027;-64
2021/06/26 06:08:25;;;;;;;8.57;6.70;;;24.70;55.90;;;;;;5002074;28;20034;-65
2021/06/26 06:10:51;;;;;;;8.50;6.70;;;24.60;55.90;;;;;;5013457;28;20041;-65
2021/06/26 06:13:21;;;;;;;12.38;6.93;;;24.60;55.90;;;;;;5012682;28;20037;-62
2021/06/26 06:15:48;;;;;;;8.13;6.70;;;24.60;56.00;;;;;;5013069;28;20026;-64
2021/06/26 06:18:15;;;;;;;9.77;7.50;;;24.60;56.10;;;;;;5012534;28;20026;-64
2021/06/26 06:20:42;;;;;;;8.18;7.28;;;24.60;56.00;;;;;;5012789;28;20168;-64
2021/06/26 06:23:08;;;;;;;9.73;7.63;;;24.60;56.20;;;;;;5012447;28;20080;-64
2021/06/26 06:25:34;;;;;;;9.25;6.57;;;24.60;56.10;;;;;;5012693;28;20475;-64
2021/06/26 06:28:04;;;;;;;9.02;6.65;;;24.60;56.20;;;;;;5013275;28;20483;-64
2021/06/26 06:30:31;;;;;;;10.15;7.57;;;24.60;56.20;;;;;;5012978;28;20053;-64
2021/06/26 06:33:01;;;;;;;9.98;7.78;;;24.60;56.00;;;;;;5013532;28;20033;-64
2021/06/26 06:35:27;;;;;;;8.18;6.75;;;24.60;56.00;;;;;;5012029;28;20491;-64
2021/06/26 06:37:53;;;;;;;8.95;7.60;;;24.60;56.00;;;;;;5013511;28;20105;-64
2021/06/26 06:40:20;;;;;;;10.45;7.38;;;24.70;56.00;;;;;;5012779;28;20029;-64
2021/06/26 06:42:47;;;;;;;9.55;7.30;;;24.60;56.10;;;;;;5012913;28;20038;-64
2021/06/26 06:45:14;;;;;;;9.50;7.15;;;24.70;56.10;;;;;;5012748;28;20030;-65
2021/06/26 06:47:40;;;;;;;7.13;6.43;;;24.70;56.10;;;;;;5012957;28;20028;-65
2021/06/26 06:50:07;;;;;;;7.93;6.72;;;24.70;56.00;;;;;;5012675;28;20044;-66
2021/06/26 06:52:34;;;;;;;7.40;6.60;;;24.70;56.60;;;;;;5012995;28;20054;-67
2021/06/26 06:54:59;;;;;;;11.10;7.00;;;24.70;56.10;;;;;;5013265;28;20084;-66
2021/06/26 06:57:26;;;;;;;9.30;7.00;;;24.70;56.30;;;;;;5009761;28;20034;-63
2021/06/26 06:59:52;;;;;;;8.65;6.95;;;24.70;56.30;;;;;;5018867;28;20025;-63
2021/06/26 07:02:19;;;;;;;11.95;7.28;;;24.60;56.50;;;;;;5007846;28;20437;-62
2021/06/26 07:04:45;;;;;;;12.45;8.63;;;24.60;56.60;;;;;;5012333;28;20084;-65
2021/06/26 07:07:11;;;;;;;13.38;8.82;;;24.50;57.20;;;;;;5012062;28;20471;-67
2021/06/26 07:09:36;;;;;;;10.07;8.50;;;24.10;58.40;;;;;;5012853;28;20033;-65
2021/06/26 07:12:02;;;;;;;11.10;8.73;;;23.90;59.60;;;;;;5012859;28;20383;-63
2021/06/26 07:14:28;;;;;;;12.82;9.80;;;23.80;60.10;;;;;;5012255;28;20430;-66
2021/06/26 07:16:54;;;;;;;11.75;9.75;;;23.60;60.40;;;;;;5012773;28;20022;-64
2021/06/26 07:19:19;;;;;;;9.75;8.75;;;23.60;60.40;;;;;;5012248;28;20058;-62
2021/06/26 07:21:46;;;;;;;10.10;8.05;;;23.60;60.00;;;;;;5012703;28;20041;-64
2021/06/26 07:24:12;;;;;;;12.45;8.45;;;23.70;59.70;;;;;;5012150;28;20075;-64
2021/06/26 07:26:37;;;;;;;12.68;9.60;;;23.90;58.80;;;;;;5012438;28;20030;-64
2021/06/26 07:29:04;;;;;;;10.88;8.98;;;23.80;59.00;;;;;;5014053;28;20034;-61
2021/06/26 07:31:30;;;;;;;10.82;8.48;;;23.80;58.80;;;;;;5031957;28;20033;-64
2021/06/26 07:33:56;;;;;;;11.40;9.55;;;23.80;58.80;;;;;;5017995;28;20033;-65
2021/06/26 07:36:22;;;;;;;10.68;9.18;;;23.70;58.60;;;;;;5011789;28;20521;-63
2021/06/26 07:38:48;;;;;;;10.40;8.85;;;23.70;58.60;;;;;;5012714;28;20033;-66
2021/06/26 07:41:14;;;;;;;9.15;7.82;;;23.80;58.40;;;;;;5011843;28;20033;-65
2021/06/26 07:43:40;;;;;;;9.98;7.88;;;23.80;58.30;;;;;;5012149;28;20049;-65
2021/06/26 07:46:06;;;;;;;13.10;9.02;;;23.90;58.30;;;;;;5011305;28;20044;-64
2021/06/26 07:48:32;;;;;;;9.68;7.90;;;24.00;57.50;;;;;;5016652;28;20452;-65
2021/06/26 07:50:58;;;;;;;11.40;7.63;;;23.80;57.80;;;;;;5015877;28;20034;-61
2021/06/26 07:53:24;;;;;;;9.32;8.05;;;23.90;58.10;;;;;;5018527;28;20480;-64
2021/06/26 07:55:53;;;;;;;10.82;7.40;;;23.90;57.50;;;;;;5016294;28;20057;-64
2021/06/26 07:58:24;;;;;;;8.57;6.68;;;23.70;57.60;;;;;;5015381;28;20484;-64
2021/06/26 08:00:50;;;;;;;8.98;7.13;;;23.80;57.70;;;;;;5015516;28;20510;-62
2021/06/26 08:03:17;;;;;;;8.88;6.32;;;23.80;56.60;;;;;;5024181;28;20099;-63
2021/06/26 08:05:44;;;;;;;7.75;6.53;;;23.80;56.50;;;;;;5016417;28;20065;-63
2021/06/26 08:08:10;;;;;;;9.20;6.30;;;23.80;56.60;;;;;;5015262;28;20026;-63
2021/06/26 08:10:36;;;;;;;6.60;5.25;;;23.70;56.10;;;;;;5016124;28;20034;-63
2021/06/26 08:13:03;;;;;;;6.40;5.78;;;23.80;55.60;;;;;;5015578;28;20061;-63
2021/06/26 08:15:29;;;;;;;8.50;6.07;;;23.90;55.60;;;;;;5015418;28;20033;-63
2021/06/26 08:17:55;;;;;;;9.93;6.32;;;23.90;55.60;;;;;;5015981;28;20030;-62
2021/06/26 08:20:23;;;;;;;6.47;5.68;;;23.90;55.70;;;;;;5015528;28;20052;-63
2021/06/26 08:22:48;;;;;;;7.70;6.72;;;23.90;56.50;;;;;;5015428;28;20033;-63
2021/06/26 08:25:14;;;;;;;8.90;6.70;;;23.90;56.20;;;;;;5015388;28;20048;-62
2021/06/26 08:27:40;;;;;;;7.97;6.90;;;23.90;55.40;;;;;;5015779;28;20026;-61
2021/06/26 08:30:07;;;;;;;7.25;6.05;;;23.80;55.30;;;;;;5033405;28;20037;-61
2021/06/26 08:32:32;;;;;;;9.52;6.10;;;23.90;55.60;;;;;;5032461;28;20040;-61
2021/06/26 08:34:58;;;;;;;6.45;5.55;;;23.90;55.30;;;;;;5015741;28;20394;-63
2021/06/26 08:37:24;;;;;;;6.13;5.50;;;24.00;54.80;;;;;;5014910;28;20072;-64
2021/06/26 08:39:49;;;;;;;7.07;4.80;;;24.10;54.50;;;;;;5015569;28;20030;-62
2021/06/26 08:42:18;;;;;;;7.18;4.60;;;24.20;54.30;;;;;;5014951;28;20037;-62
2021/06/26 08:44:48;;;;;;;5.70;5.00;;;24.40;54.10;;;;;;5015543;28;20029;-62
2021/06/26 08:47:14;;;;;;;5.30;4.80;;;24.50;54.10;;;;;;5014891;28;20030;-62
2021/06/26 08:49:40;;;;;;;4.88;4.38;;;24.60;53.60;;;;;;5015130;28;20030;-62
2021/06/26 08:52:06;;;;;;;5.45;4.90;;;24.60;53.30;;;;;;5015038;28;20064;-61
2021/06/26 08:54:32;;;;;;;7.10;4.72;;;24.70;53.40;;;;;;5014873;28;20026;-63
2021/06/26 08:56:57;;;;;;;5.35;4.75;;;24.90;53.70;;;;;;5015046;28;20033;-60
2021/06/26 08:59:23;;;;;;;7.35;5.22;;;24.90;53.10;;;;;;5014779;28;20030;-60
2021/06/26 09:01:49;;;;;;;8.23;4.55;;;24.90;53.50;;;;;;5014996;28;20109;-64
2021/06/26 09:04:19;;;;;;;6.18;5.53;;;24.80;53.50;;;;;;5014229;28;20117;-61
2021/06/26 09:06:47;;;;;;;5.85;5.13;;;24.80;53.40;;;;;;5015318;28;20395;-64
2021/06/26 09:09:14;;;;;;;9.30;5.40;;;24.70;52.90;;;;;;5014027;28;20022;-61
2021/06/26 09:11:39;;;;;;;8.02;5.55;;;24.80;53.50;;;;;;5014204;28;20034;-63
2021/06/26 09:14:19;;;;;;;7.38;6.07;;;24.80;53.10;;;;;;5014273;28;20121;-64
2021/06/26 09:16:52;;;;;;;7.43;6.25;;;24.50;52.80;;;;;;5015105;28;20030;-65
2021/06/26 09:19:18;;;;;;;6.82;6.03;;;24.50;53.60;;;;;;5020221;28;20034;-64
2021/06/26 09:22:07;;;;;;;8.45;5.50;;;24.50;53.90;;;;;;5034433;28;20195;-64
2021/06/26 09:24:41;;;;;;;11.70;5.38;;;24.50;53.60;;;;;;5033867;28;20486;-65
2021/06/26 09:27:07;;;;;;;6.45;4.75;;;24.40;53.30;;;;;;5034590;28;20053;-65
2021/06/26 09:29:33;;;;;;;8.40;5.55;;;24.50;53.10;;;;;;5032631;28;20025;-64
2021/06/26 09:32:01;;;;;;;8.23;5.75;;;24.50;53.90;;;;;;5033896;28;20048;-64
2021/06/26 09:34:45;;;;;;;7.22;5.60;;;24.50;54.00;;;;;;5014963;28;20030;-65
2021/06/26 09:37:19;;;;;;;6.40;5.80;;;24.60;53.60;;;;;;5013600;28;20108;-63
2021/06/26 09:39:46;;;;;;;10.93;6.30;;;24.60;54.00;;;;;;5014351;28;20114;-64
2021/06/26 09:42:30;;;;;;;7.32;6.55;;;24.50;55.00;;;;;;5013792;28;20045;-64
2021/06/26 09:45:10;;;;;;;8.52;5.65;;;24.50;55.50;;;;;;5014406;28;20539;-64
2021/06/26 09:47:38;;;;;;;11.30;5.30;;;24.50;54.90;;;;;;5014328;28;20029;-63
2021/06/26 09:50:18;;;;;;;9.77;4.55;;;24.50;54.60;;;;;;5014355;28;20030;-64
2021/06/26 09:52:56;;;;;;;6.95;4.82;;;24.60;53.70;;;;;;5013822;28;20061;-64
2021/06/26 09:55:39;;;;;;;9.88;4.60;;;24.60;53.30;;;;;;5013496;28;20117;-63
2021/06/26 09:58:17;;;;;;;6.35;4.97;;;24.80;52.80;;;;;;5013965;28;20037;-64
2021/06/26 10:00:44;;;;;;;8.73;4.93;;;24.90;52.70;;;;;;5014185;28;20383;-62
2021/06/26 10:03:15;;;;;;;7.57;5.03;;;24.90;52.40;;;;;;5013521;28;20391;-58
2021/06/26 10:05:43;;;;;;;9.57;5.15;;;24.80;52.50;;;;;;5013687;28;20119;-61
2021/06/26 10:08:09;;;;;;;8.60;5.15;;;24.90;52.70;;;;;;5021989;28;20773;-57
2021/06/26 10:10:35;;;;;;;12.00;6.03;;;24.80;52.90;;;;;;5027071;28;20366;-61
2021/06/26 10:13:02;;;;;;;14.40;5.40;;;24.90;53.00;;;;;;5033348;28;20610;-62
2021/06/26 10:15:32;;;;;;;13.90;6.38;;;25.00;53.00;;;;;;5032761;28;20026;-63
2021/06/26 10:17:59;;;;;;;9.85;5.10;;;24.80;53.40;;;;;;5033670;28;20024;-62
2021/06/26 10:20:27;;;;;;;11.65;5.35;;;24.80;54.00;;;;;;5032446;28;20163;-62
2021/06/26 10:23:03;;;;;;;11.27;5.78;;;24.90;54.50;;;;;;5033426;28;20033;-59
2021/06/26 10:25:37;;;;;;;18.17;5.80;;;24.90;54.30;;;;;;5032330;28;20459;-61
2021/06/26 10:28:12;;;;;;;8.70;5.82;;;24.90;54.40;;;;;;5033355;28;20030;-61
2021/06/26 10:30:38;;;;;;;6.03;5.03;;;24.80;53.70;;;;;;5033384;28;20033;-63
2021/06/26 10:33:06;;;;;;;10.23;4.93;;;25.00;52.50;;;;;;5026173;28;20407;-58
2021/06/26 10:35:34;;;;;;;7.57;5.60;;;25.10;52.70;;;;;;5012828;28;20066;-61
2021/06/26 10:38:12;;;;;;;11.75;4.80;;;25.10;52.90;;;;;;5013464;28;20106;-61
2021/06/26 10:40:52;;;;;;;7.85;4.53;;;25.00;52.40;;;;;;5013199;28;20486;-60
2021/06/26 10:43:27;;;;;;;6.43;4.50;;;25.00;51.80;;;;;;5012806;28;20073;-61
2021/06/26 10:46:08;;;;;;;6.78;4.65;;;25.00;52.00;;;;;;5013329;28;20072;-60
2021/06/26 10:48:34;;;;;;;5.47;4.13;;;25.00;51.70;;;;;;5012711;28;20022;-60
2021/06/26 10:51:00;;;;;;;6.30;4.68;;;25.00;51.50;;;;;;5013303;28;20026;-60
2021/06/26 10:53:34;;;;;;;5.53;4.82;;;25.00;51.70;;;;;;5012226;28;20057;-60
2021/06/26 10:56:01;;;;;;;7.80;5.10;;;25.00;51.80;;;;;;5012931;28;20026;-61
2021/06/26 10:58:46;;;;;;;4.82;4.32;;;25.00;51.40;;;;;;5012465;28;20611;-60
2021/06/26 11:01:17;;;;;;;5.63;4.57;;;25.00;51.40;;;;;;5012958;28;20026;-60
2021/06/26 11:03:44;;;;;;;6.30;4.40;;;25.00;51.50;;;;;;5012753;28;20534;-62
2021/06/26 11:06:17;;;;;;;5.00;4.50;;;25.00;51.80;;;;;;5012772;28;20029;-58
2021/06/26 11:09:01;;;;;;;5.90;4.63;;;25.10;51.70;;;;;;5013138;28;20467;-60
2021/06/26 11:11:33;;;;;;;5.47;4.07;;;25.30;51.60;;;;;;5012153;28;20088;-60
2021/06/26 11:14:10;;;;;;;5.43;4.35;;;25.20;51.70;;;;;;5012576;28;20026;-63
2021/06/26 11:16:37;;;;;;;6.35;5.22;;;25.20;51.80;;;;;;5023421;28;20052;-60
2021/06/26 11:19:03;;;;;;;7.30;5.05;;;25.20;51.80;;;;;;5032133;28;20029;-61
2021/06/26 11:21:40;;;;;;;5.95;4.38;;;25.10;52.20;;;;;;5030219;28;20025;-60
2021/06/26 11:24:06;;;;;;;9.70;4.90;;;25.10;52.20;;;;;;5032429;28;20033;-61
2021/06/26 11:26:32;;;;;;;7.57;4.88;;;25.20;52.10;;;;;;5031528;28;20029;-60
2021/06/26 11:28:57;;;;;;;4.68;4.15;;;25.20;52.00;;;;;;5014339;28;20080;-62
2021/06/26 11:31:23;;;;;;;5.35;4.50;;;25.30;52.10;;;;;;5011512;28;20034;-61
2021/06/26 11:33:49;;;;;;;5.68;4.32;;;25.30;52.10;;;;;;5012335;28;20113;-61
2021/06/26 11:36:15;;;;;;;5.35;4.50;;;25.30;52.00;;;;;;5012128;28;20456;-60
2021/06/26 11:38:41;;;;;;;4.32;3.85;;;25.30;52.00;;;;;;5012059;28;20033;-59
2021/06/26 11:41:09;;;;;;;5.85;4.30;;;25.30;51.60;;;;;;5011462;28;20018;-62
2021/06/26 11:43:36;;;;;;;6.80;4.47;;;25.30;51.80;;;;;;5011396;28;20049;-60
2021/06/26 11:46:04;;;;;;;6.35;5.18;;;25.40;52.30;;;;;;5012374;28;20033;-60
2021/06/26 11:48:30;;;;;;;5.75;5.05;;;25.40;52.50;;;;;;5011797;28;20033;-61
2021/06/26 11:50:58;;;;;;;6.20;4.22;;;25.40;52.70;;;;;;5011104;28;20048;-63
2021/06/26 11:53:27;;;;;;;9.32;4.70;;;25.40;52.40;;;;;;5023960;28;20058;-60
2021/06/26 11:56:03;;;;;;;10.93;5.63;;;25.40;52.40;;;;;;5031836;28;20022;-60
2021/06/26 11:58:50;;;;;;;8.43;4.75;;;25.50;54.10;;;;;;5031453;28;20021;-61
2021/06/26 12:01:18;;;;;;;9.27;5.30;;;25.50;52.40;;;;;;5031620;28;20033;-58
2021/06/26 12:03:44;;;;;;;4.72;3.83;;;25.60;52.80;;;;;;5019005;28;20116;-62
2021/06/26 12:06:12;;;;;;;5.53;4.30;;;25.60;52.60;;;;;;5012117;28;20478;-62
2021/06/26 12:08:46;;;;;;;7.07;4.70;;;25.60;52.60;;;;;;5011396;28;20030;-60
2021/06/26 12:11:31;;;;;;;12.20;4.75;;;25.70;53.00;;;;;;5012024;28;20037;-61
2021/06/26 12:13:59;;;;;;;5.75;4.18;;;25.70;52.70;;;;;;5011899;28;20057;-60
2021/06/26 12:16:32;;;;;;;6.90;4.10;;;25.70;52.50;;;;;;5011508;28;20088;-60
2021/06/26 12:19:00;;;;;;;5.53;3.97;;;25.70;52.50;;;;;;5011809;28;20033;-60
2021/06/26 12:21:40;;;;;;;6.00;4.45;;;25.70;52.60;;;;;;5010981;28;20566;-61
2021/06/26 12:24:07;;;;;;;8.40;4.38;;;25.70;52.90;;;;;;5012310;28;20356;-64
2021/06/26 12:26:33;;;;;;;7.07;4.20;;;25.60;52.80;;;;;;5011403;28;20048;-61
2021/06/26 12:28:58;;;;;;;7.53;4.80;;;25.60;52.30;;;;;;5019859;28;20025;-61
2021/06/26 12:31:27;;;;;;;6.18;3.65;;;25.60;52.30;;;;;;5029699;28;20025;-62
2021/06/26 12:34:01;;;;;;;5.30;4.40;;;25.60;52.20;;;;;;5015334;28;20112;-61
2021/06/26 12:36:27;;;;;;;5.28;3.97;;;25.60;52.20;;;;;;5014385;28;20022;-60
2021/06/26 12:38:53;;;;;;;5.03;4.50;;;25.70;52.10;;;;;;5014819;28;20100;-62
2021/06/26 12:41:25;;;;;;;6.75;4.18;;;25.70;52.10;;;;;;5014851;28;20391;-64
2021/06/26 12:43:52;;;;;;;5.80;4.30;;;25.70;52.00;;;;;;5015461;28;20026;-63
2021/06/26 12:46:19;;;;;;;8.02;4.00;;;25.60;52.00;;;;;;5015431;28;20026;-61